sensor_id;sensor_type;location;lat;lon;timestamp;pressure;altitude;pressure_sealevel;temperature;humidity
54808;BME280;40708;50.364;7.550;2022-07-23T00:01:58;100499.88;;;20.10;100.00
54808;BME280;40708;50.364;7.550;2022-07-23T00:04:23;100505.47;;;20.04;100.00
54808;BME280;40708;50.364;7.550;2022-07-23T00:06:48;100510.06;;;20.02;100.00
54808;BME280;40708;50.364;7.550;2022-07-23T00:09:14;100507.56;;;19.96;100.00
54808;BME280;40708;50.364;7.550;2022-07-23T00:11:39;100501.38;;;19.94;100.00
54808;BME280;40708;50.364;7.550;2022-07-23T00:14:04;100502.41;;;19.90;100.00
54808;BME280;40708;50.364;7.550;2022-07-23T00:16:29;100514.97;;;19.90;100.00
54808;BME280;40708;50.364;7.550;2022-07-23T00:18:55;100508.75;;;19.89;100.00
54808;BME280;40708;50.364;7.550;2022-07-23T00:21:20;100506.91;;;19.90;100.00
54808;BME280;40708;50.364;7.550;2022-07-23T00:23:46;100505.06;;;19.92;100.00
54808;BME280;40708;50.364;7.550;2022-07-23T00:26:11;100504.31;;;19.87;100.00
54808;BME280;40708;50.364;7.550;2022-07-23T00:28:36;100501.63;;;19.87;100.00
54808;BME280;40708;50.364;7.550;2022-07-23T00:31:02;100517.78;;;19.87;100.00
54808;BME280;40708;50.364;7.550;2022-07-23T00:33:27;100512.47;;;19.85;100.00
54808;BME280;40708;50.364;7.550;2022-07-23T00:35:52;100527.72;;;19.86;100.00
54808;BME280;40708;50.364;7.550;2022-07-23T00:38:18;100520.63;;;19.84;100.00
54808;BME280;40708;50.364;7.550;2022-07-23T00:40:43;100520.66;;;19.82;100.00
54808;BME280;40708;50.364;7.550;2022-07-23T00:43:09;100516.44;;;19.75;100.00
54808;BME280;40708;50.364;7.550;2022-07-23T00:45:34;100513.69;;;19.77;100.00
54808;BME280;40708;50.364;7.550;2022-07-23T00:48:00;100506.50;;;19.77;100.00
54808;BME280;40708;50.364;7.550;2022-07-23T00:50:25;100506.41;;;19.79;100.00
54808;BME280;40708;50.364;7.550;2022-07-23T00:52:52;100506.38;;;19.80;100.00
54808;BME280;40708;50.364;7.550;2022-07-23T00:55:17;100500.94;;;19.82;100.00
54808;BME280;40708;50.364;7.550;2022-07-23T00:57:43;100512.66;;;19.81;100.00
54808;BME280;40708;50.364;7.550;2022-07-23T01:00:11;100513.66;;;19.78;100.00
54808;BME280;40708;50.364;7.550;2022-07-23T01:02:38;100513.75;;;19.75;100.00
54808;BME280;40708;50.364;7.550;2022-07-23T01:05:04;100510.34;;;19.70;100.00
54808;BME280;40708;50.364;7.550;2022-07-23T01:07:30;100523.03;;;19.67;100.00
54808;BME280;40708;50.364;7.550;2022-07-23T01:09:55;100506.09;;;19.63;100.00
54808;BME280;40708;50.364;7.550;2022-07-23T01:12:21;100502.28;;;19.70;100.00
54808;BME280;40708;50.364;7.550;2022-07-23T01:14:59;100486.13;;;19.70;100.00
54808;BME280;40708;50.364;7.550;2022-07-23T01:17:25;100491.63;;;19.67;100.00
54808;BME280;40708;50.364;7.550;2022-07-23T01:19:51;100491.81;;;19.61;100.00
54808;BME280;40708;50.364;7.550;2022-07-23T01:22:18;100503.50;;;19.60;100.00
54808;BME280;40708;50.364;7.550;2022-07-23T01:24:44;100499.00;;;19.60;100.00
54808;BME280;40708;50.364;7.550;2022-07-23T01:27:09;100501.81;;;19.57;100.00
54808;BME280;40708;50.364;7.550;2022-07-23T01:29:35;100489.16;;;19.59;100.00
54808;BME280;40708;50.364;7.550;2022-07-23T01:32:00;100477.69;;;19.54;100.00
54808;BME280;40708;50.364;7.550;2022-07-23T01:34:25;100485.94;;;19.50;100.00
54808;BME280;40708;50.364;7.550;2022-07-23T01:36:51;100489.56;;;19.49;100.00
54808;BME280;40708;50.364;7.550;2022-07-23T01:39:16;100485.13;;;19.48;100.00
54808;BME280;40708;50.364;7.550;2022-07-23T01:41:42;100497.00;;;19.41;100.00
54808;BME280;40708;50.364;7.550;2022-07-23T01:44:07;100498.84;;;19.40;100.00
54808;BME280;40708;50.364;7.550;2022-07-23T01:46:32;100497.97;;;19.40;100.00
54808;BME280;40708;50.364;7.550;2022-07-23T01:48:58;100487.97;;;19.43;100.00
54808;BME280;40708;50.364;7.550;2022-07-23T01:51:23;100485.25;;;19.43;100.00
54808;BME280;40708;50.364;7.550;2022-07-23T01:53:48;100477.19;;;19.43;100.00
54808;BME280;40708;50.364;7.550;2022-07-23T01:56:14;100479.13;;;19.40;100.00
54808;BME280;40708;50.364;7.550;2022-07-23T01:58:40;100475.72;;;19.33;100.00
54808;BME280;40708;50.364;7.550;2022-07-23T02:01:05;100479.41;;;19.31;100.00
54808;BME280;40708;50.364;7.550;2022-07-23T02:03:31;100470.63;;;19.26;100.00
54808;BME280;40708;50.364;7.550;2022-07-23T02:05:56;100489.56;;;19.23;100.00
54808;BME280;40708;50.364;7.550;2022-07-23T02:08:22;100480.81;;;19.16;100.00
54808;BME280;40708;50.364;7.550;2022-07-23T02:10:47;100490.56;;;19.19;100.00
54808;BME280;40708;50.364;7.550;2022-07-23T02:13:13;100488.78;;;19.19;100.00
54808;BME280;40708;50.364;7.550;2022-07-23T02:15:39;100495.84;;;19.22;100.00
54808;BME280;40708;50.364;7.550;2022-07-23T02:18:04;100489.63;;;19.21;100.00
54808;BME280;40708;50.364;7.550;2022-07-23T02:20:30;100493.06;;;19.25;100.00
54808;BME280;40708;50.364;7.550;2022-07-23T02:22:55;100485.09;;;19.22;100.00
54808;BME280;40708;50.364;7.550;2022-07-23T02:25:20;100485.09;;;19.22;100.00
54808;BME280;40708;50.364;7.550;2022-07-23T02:27:46;100465.72;;;19.12;100.00
54808;BME280;40708;50.364;7.550;2022-07-23T02:30:11;100484.28;;;19.20;100.00
54808;BME280;40708;50.364;7.550;2022-07-23T02:32:37;100484.19;;;19.23;100.00
54808;BME280;40708;50.364;7.550;2022-07-23T02:35:03;100477.00;;;19.23;100.00
54808;BME280;40708;50.364;7.550;2022-07-23T02:37:29;100485.06;;;19.23;100.00
54808;BME280;40708;50.364;7.550;2022-07-23T02:39:54;100491.34;;;19.22;100.00
54808;BME280;40708;50.364;7.550;2022-07-23T02:42:20;100475.38;;;19.18;100.00
54808;BME280;40708;50.364;7.550;2022-07-23T02:44:45;100483.38;;;19.19;100.00
54808;BME280;40708;50.364;7.550;2022-07-23T02:47:11;100478.09;;;19.16;100.00
54808;BME280;40708;50.364;7.550;2022-07-23T02:49:36;100480.16;;;19.10;100.00
54808;BME280;40708;50.364;7.550;2022-07-23T02:52:01;100488.41;;;19.03;100.00
54808;BME280;40708;50.364;7.550;2022-07-23T02:54:27;100489.56;;;18.96;100.00
54808;BME280;40708;50.364;7.550;2022-07-23T02:56:52;100494.97;;;18.95;100.00
54808;BME280;40708;50.364;7.550;2022-07-23T02:59:18;100498.75;;;18.89;100.00
54808;BME280;40708;50.364;7.550;2022-07-23T03:01:44;100492.47;;;18.89;100.00
54808;BME280;40708;50.364;7.550;2022-07-23T03:04:09;100487.25;;;18.84;100.00
54808;BME280;40708;50.364;7.550;2022-07-23T03:06:35;100483.91;;;18.78;100.00
54808;BME280;40708;50.364;7.550;2022-07-23T03:09:01;100478.72;;;18.72;100.00
54808;BME280;40708;50.364;7.550;2022-07-23T03:11:26;100487.03;;;18.64;100.00
54808;BME280;40708;50.364;7.550;2022-07-23T03:13:51;100493.50;;;18.59;100.00
54808;BME280;40708;50.364;7.550;2022-07-23T03:16:17;100490.09;;;18.52;100.00
54808;BME280;40708;50.364;7.550;2022-07-23T03:18:42;100489.50;;;18.42;100.00
54808;BME280;40708;50.364;7.550;2022-07-23T03:21:07;100496.00;;;18.34;100.00
54808;BME280;40708;50.364;7.550;2022-07-23T03:23:33;100494.50;;;18.24;100.00
54808;BME280;40708;50.364;7.550;2022-07-23T03:25:58;100506.47;;;18.14;100.00
54808;BME280;40708;50.364;7.550;2022-07-23T03:28:23;100505.66;;;18.10;100.00
54808;BME280;40708;50.364;7.550;2022-07-23T03:30:49;100505.78;;;18.07;100.00
54808;BME280;40708;50.364;7.550;2022-07-23T03:33:15;100506.91;;;17.99;100.00
54808;BME280;40708;50.364;7.550;2022-07-23T03:35:42;100502.53;;;17.95;100.00
54808;BME280;40708;50.364;7.550;2022-07-23T03:38:07;100500.97;;;17.88;100.00
54808;BME280;40708;50.364;7.550;2022-07-23T03:40:33;100497.53;;;17.82;100.00
54808;BME280;40708;50.364;7.550;2022-07-23T03:42:58;100495.78;;;17.81;100.00
54808;BME280;40708;50.364;7.550;2022-07-23T03:45:23;100495.03;;;17.76;100.00
54808;BME280;40708;50.364;7.550;2022-07-23T03:47:49;100496.97;;;17.70;100.00
54808;BME280;40708;50.364;7.550;2022-07-23T03:50:14;100499.75;;;17.67;100.00
54808;BME280;40708;50.364;7.550;2022-07-23T03:52:40;100517.69;;;17.66;100.00
54808;BME280;40708;50.364;7.550;2022-07-23T03:55:06;100517.75;;;17.63;100.00
54808;BME280;40708;50.364;7.550;2022-07-23T03:57:31;100521.41;;;17.61;100.00
54808;BME280;40708;50.364;7.550;2022-07-23T03:59:57;100510.69;;;17.59;100.00
54808;BME280;40708;50.364;7.550;2022-07-23T04:02:22;100521.41;;;17.61;100.00
54808;BME280;40708;50.364;7.550;2022-07-23T04:04:47;100527.59;;;17.63;100.00
54808;BME280;40708;50.364;7.550;2022-07-23T04:07:13;100525.75;;;17.65;100.00
54808;BME280;40708;50.364;7.550;2022-07-23T04:09:39;100529.34;;;17.64;100.00
54808;BME280;40708;50.364;7.550;2022-07-23T04:12:06;100527.53;;;17.64;100.00
54808;BME280;40708;50.364;7.550;2022-07-23T04:14:31;100536.41;;;17.68;100.00
54808;BME280;40708;50.364;7.550;2022-07-23T04:16:56;100536.34;;;17.69;100.00
54808;BME280;40708;50.364;7.550;2022-07-23T04:19:22;100546.00;;;17.76;100.00
54808;BME280;40708;50.364;7.550;2022-07-23T04:21:47;100544.13;;;17.80;100.00
54808;BME280;40708;50.364;7.550;2022-07-23T04:24:12;100543.16;;;17.82;100.00
54808;BME280;40708;50.364;7.550;2022-07-23T04:26:38;100541.47;;;17.78;100.00
54808;BME280;40708;50.364;7.550;2022-07-23T04:29:03;100540.50;;;17.81;100.00
54808;BME280;40708;50.364;7.550;2022-07-23T04:31:28;100541.22;;;17.88;100.00
54808;BME280;40708;50.364;7.550;2022-07-23T04:33:54;100539.16;;;17.97;100.00
54808;BME280;40708;50.364;7.550;2022-07-23T04:36:19;100545.81;;;18.15;100.00
54808;BME280;40708;50.364;7.550;2022-07-23T04:38:44;100543.72;;;18.24;100.00
54808;BME280;40708;50.364;7.550;2022-07-23T04:41:10;100544.91;;;18.45;100.00
54808;BME280;40708;50.364;7.550;2022-07-23T04:43:35;100549.44;;;18.43;100.00
54808;BME280;40708;50.364;7.550;2022-07-23T04:46:00;100559.34;;;18.42;100.00
54808;BME280;40708;50.364;7.550;2022-07-23T04:48:26;100549.03;;;18.58;100.00
54808;BME280;40708;50.364;7.550;2022-07-23T04:50:51;100546.03;;;18.67;100.00
54808;BME280;40708;50.364;7.550;2022-07-23T04:53:16;100550.88;;;18.84;100.00
54808;BME280;40708;50.364;7.550;2022-07-23T04:55:43;100553.38;;;18.90;100.00
54808;BME280;40708;50.364;7.550;2022-07-23T04:58:09;100557.69;;;18.95;100.00
54808;BME280;40708;50.364;7.550;2022-07-23T05:00:34;100553.28;;;18.93;100.00
54808;BME280;40708;50.364;7.550;2022-07-23T05:02:59;100550.25;;;18.76;100.00
54808;BME280;40708;50.364;7.550;2022-07-23T05:05:25;100551.13;;;18.76;100.00
54808;BME280;40708;50.364;7.550;2022-07-23T05:07:50;100549.38;;;19.03;100.00
54808;BME280;40708;50.364;7.550;2022-07-23T05:10:15;100564.41;;;19.36;100.00
54808;BME280;40708;50.364;7.550;2022-07-23T05:12:41;100556.53;;;19.58;100.00
54808;BME280;40708;50.364;7.550;2022-07-23T05:15:06;100552.56;;;19.93;100.00
54808;BME280;40708;50.364;7.550;2022-07-23T05:17:32;100544.38;;;20.20;100.00
54808;BME280;40708;50.364;7.550;2022-07-23T05:19:57;100545.06;;;20.73;100.00
54808;BME280;40708;50.364;7.550;2022-07-23T05:22:23;100542.16;;;20.78;100.00
54808;BME280;40708;50.364;7.550;2022-07-23T05:24:48;100541.28;;;21.22;100.00
54808;BME280;40708;50.364;7.550;2022-07-23T05:27:13;100538.34;;;21.69;100.00
54808;BME280;40708;50.364;7.550;2022-07-23T05:29:39;100545.28;;;21.96;100.00
54808;BME280;40708;50.364;7.550;2022-07-23T05:32:04;100540.13;;;21.70;100.00
54808;BME280;40708;50.364;7.550;2022-07-23T05:34:30;100539.09;;;22.72;100.00
54808;BME280;40708;50.364;7.550;2022-07-23T05:36:55;100535.50;;;23.61;100.00
54808;BME280;40708;50.364;7.550;2022-07-23T05:39:20;100539.41;;;23.20;100.00
54808;BME280;40708;50.364;7.550;2022-07-23T05:41:46;100541.44;;;23.51;100.00
54808;BME280;40708;50.364;7.550;2022-07-23T05:44:11;100546.66;;;23.37;100.00
54808;BME280;40708;50.364;7.550;2022-07-23T05:46:36;100556.91;;;22.76;100.00
54808;BME280;40708;50.364;7.550;2022-07-23T05:49:02;100561.50;;;22.35;100.00
54808;BME280;40708;50.364;7.550;2022-07-23T05:51:27;100566.13;;;22.33;100.00
54808;BME280;40708;50.364;7.550;2022-07-23T05:53:52;100570.00;;;22.66;100.00
54808;BME280;40708;50.364;7.550;2022-07-23T05:56:19;100570.84;;;23.41;100.00
54808;BME280;40708;50.364;7.550;2022-07-23T05:58:44;100567.09;;;23.25;100.00
54808;BME280;40708;50.364;7.550;2022-07-23T06:01:10;100577.34;;;23.19;100.00
54808;BME280;40708;50.364;7.550;2022-07-23T06:03:37;100582.19;;;23.12;100.00
54808;BME280;40708;50.364;7.550;2022-07-23T06:06:02;100580.94;;;23.19;100.00
54808;BME280;40708;50.364;7.550;2022-07-23T06:08:28;100575.22;;;23.25;100.00
54808;BME280;40708;50.364;7.550;2022-07-23T06:10:53;100581.13;;;23.33;100.00
54808;BME280;40708;50.364;7.550;2022-07-23T06:13:18;100581.34;;;22.93;100.00
54808;BME280;40708;50.364;7.550;2022-07-23T06:15:44;100574.97;;;23.30;100.00
54808;BME280;40708;50.364;7.550;2022-07-23T06:18:09;100575.91;;;23.11;100.00
54808;BME280;40708;50.364;7.550;2022-07-23T06:20:35;100566.88;;;24.17;100.00
54808;BME280;40708;50.364;7.550;2022-07-23T06:23:00;100574.41;;;24.77;100.00
54808;BME280;40708;50.364;7.550;2022-07-23T06:25:26;100576.66;;;24.37;100.00
54808;BME280;40708;50.364;7.550;2022-07-23T06:27:51;100566.41;;;24.26;100.00
54808;BME280;40708;50.364;7.550;2022-07-23T06:30:16;100572.84;;;24.06;100.00
54808;BME280;40708;50.364;7.550;2022-07-23T06:32:44;100581.00;;;23.72;100.00
54808;BME280;40708;50.364;7.550;2022-07-23T06:35:10;100575.25;;;23.95;100.00
54808;BME280;40708;50.364;7.550;2022-07-23T06:37:35;100575.41;;;24.26;100.00
54808;BME280;40708;50.364;7.550;2022-07-23T06:40:01;100582.06;;;24.87;100.00
54808;BME280;40708;50.364;7.550;2022-07-23T06:42:26;100580.03;;;24.90;100.00
54808;BME280;40708;50.364;7.550;2022-07-23T06:44:51;100583.00;;;25.01;100.00
54808;BME280;40708;50.364;7.550;2022-07-23T06:47:17;100587.47;;;25.33;100.00
54808;BME280;40708;50.364;7.550;2022-07-23T06:49:42;100589.66;;;24.80;100.00
54808;BME280;40708;50.364;7.550;2022-07-23T06:52:08;100589.75;;;24.46;100.00
54808;BME280;40708;50.364;7.550;2022-07-23T06:54:33;100596.59;;;24.85;100.00
54808;BME280;40708;50.364;7.550;2022-07-23T06:56:59;100602.47;;;25.09;100.00
54808;BME280;40708;50.364;7.550;2022-07-23T06:59:24;100588.25;;;25.67;100.00
54808;BME280;40708;50.364;7.550;2022-07-23T07:01:49;100602.44;;;25.72;100.00
54808;BME280;40708;50.364;7.550;2022-07-23T07:04:15;100607.72;;;25.28;100.00
54808;BME280;40708;50.364;7.550;2022-07-23T07:06:40;100608.84;;;25.39;100.00
54808;BME280;40708;50.364;7.550;2022-07-23T07:09:06;100615.53;;;25.50;100.00
54808;BME280;40708;50.364;7.550;2022-07-23T07:11:31;100617.47;;;25.16;100.00
54808;BME280;40708;50.364;7.550;2022-07-23T07:13:56;100619.97;;;25.04;100.00
54808;BME280;40708;50.364;7.550;2022-07-23T07:16:22;100624.78;;;24.99;100.00
54808;BME280;40708;50.364;7.550;2022-07-23T07:18:47;100623.59;;;25.51;100.00
54808;BME280;40708;50.364;7.550;2022-07-23T07:21:12;100619.41;;;26.21;100.00
54808;BME280;40708;50.364;7.550;2022-07-23T07:23:38;100615.38;;;26.28;100.00
54808;BME280;40708;50.364;7.550;2022-07-23T07:26:03;100615.59;;;27.09;100.00
54808;BME280;40708;50.364;7.550;2022-07-23T07:28:29;100622.38;;;27.31;100.00
54808;BME280;40708;50.364;7.550;2022-07-23T07:30:54;100623.22;;;27.45;100.00
54808;BME280;40708;50.364;7.550;2022-07-23T07:33:19;100619.88;;;27.81;100.00
54808;BME280;40708;50.364;7.550;2022-07-23T07:35:46;100625.59;;;27.23;100.00
54808;BME280;40708;50.364;7.550;2022-07-23T07:38:11;100625.16;;;27.97;100.00
54808;BME280;40708;50.364;7.550;2022-07-23T07:40:37;100626.25;;;28.21;100.00
54808;BME280;40708;50.364;7.550;2022-07-23T07:43:02;100637.28;;;27.66;100.00
54808;BME280;40708;50.364;7.550;2022-07-23T07:45:28;100632.00;;;27.50;100.00
54808;BME280;40708;50.364;7.550;2022-07-23T07:47:54;100635.78;;;28.66;100.00
54808;BME280;40708;50.364;7.550;2022-07-23T07:50:20;100638.31;;;28.69;100.00
54808;BME280;40708;50.364;7.550;2022-07-23T07:52:46;100639.25;;;29.06;100.00
54808;BME280;40708;50.364;7.550;2022-07-23T07:55:12;100637.19;;;28.59;100.00
54808;BME280;40708;50.364;7.550;2022-07-23T07:57:38;100631.09;;;28.80;100.00
54808;BME280;40708;50.364;7.550;2022-07-23T08:00:07;100635.44;;;28.58;100.00
54808;BME280;40708;50.364;7.550;2022-07-23T08:02:41;100639.31;;;27.89;100.00
54808;BME280;40708;50.364;7.550;2022-07-23T08:05:07;100632.22;;;28.13;100.00
54808;BME280;40708;50.364;7.550;2022-07-23T08:07:32;100637.31;;;28.95;100.00
54808;BME280;40708;50.364;7.550;2022-07-23T08:09:58;100640.25;;;28.92;100.00
54808;BME280;40708;50.364;7.550;2022-07-23T08:12:23;100642.38;;;28.24;100.00
54808;BME280;40708;50.364;7.550;2022-07-23T08:14:48;100638.16;;;27.26;100.00
54808;BME280;40708;50.364;7.550;2022-07-23T08:17:14;100637.47;;;27.22;100.00
54808;BME280;40708;50.364;7.550;2022-07-23T08:19:39;100635.59;;;26.52;100.00
54808;BME280;40708;50.364;7.550;2022-07-23T08:22:04;100641.31;;;26.47;100.00
54808;BME280;40708;50.364;7.550;2022-07-23T08:24:30;100638.94;;;26.71;100.00
54808;BME280;40708;50.364;7.550;2022-07-23T08:26:55;100639.88;;;26.56;100.00
54808;BME280;40708;50.364;7.550;2022-07-23T08:29:20;100643.25;;;25.86;100.00
54808;BME280;40708;50.364;7.550;2022-07-23T08:31:46;100655.91;;;25.71;100.00
54808;BME280;40708;50.364;7.550;2022-07-23T08:34:11;100666.19;;;25.51;100.00
54808;BME280;40708;50.364;7.550;2022-07-23T08:36:36;100659.84;;;25.66;100.00
54808;BME280;40708;50.364;7.550;2022-07-23T08:39:02;100653.81;;;25.45;100.00
54808;BME280;40708;50.364;7.550;2022-07-23T08:41:28;100661.25;;;25.26;100.00
54808;BME280;40708;50.364;7.550;2022-07-23T08:43:54;100662.72;;;25.31;100.00
54808;BME280;40708;50.364;7.550;2022-07-23T08:46:20;100662.91;;;25.28;100.00
54808;BME280;40708;50.364;7.550;2022-07-23T08:48:48;100663.69;;;25.30;100.00
54808;BME280;40708;50.364;7.550;2022-07-23T08:51:14;100657.84;;;25.38;100.00
54808;BME280;40708;50.364;7.550;2022-07-23T08:53:40;100663.19;;;25.55;100.00
54808;BME280;40708;50.364;7.550;2022-07-23T08:56:07;100666.50;;;25.91;100.00
54808;BME280;40708;50.364;7.550;2022-07-23T08:58:32;100649.63;;;26.60;100.00
54808;BME280;40708;50.364;7.550;2022-07-23T09:00:58;100653.19;;;27.45;100.00
54808;BME280;40708;50.364;7.550;2022-07-23T09:03:32;100652.94;;;28.16;100.00
54808;BME280;40708;50.364;7.550;2022-07-23T09:05:59;100645.25;;;28.48;100.00
54808;BME280;40708;50.364;7.550;2022-07-23T09:08:43;100645.41;;;28.07;100.00
54808;BME280;40708;50.364;7.550;2022-07-23T09:11:11;100656.41;;;28.95;100.00
54808;BME280;40708;50.364;7.550;2022-07-23T09:13:48;100650.19;;;29.55;100.00
54808;BME280;40708;50.364;7.550;2022-07-23T09:18:54;100637.25;;;29.20;100.00
54808;BME280;40708;50.364;7.550;2022-07-23T09:21:22;100637.06;;;27.96;100.00
54808;BME280;40708;50.364;7.550;2022-07-23T09:26:46;100637.41;;;28.56;100.00
54808;BME280;40708;50.364;7.550;2022-07-23T09:29:16;100639.81;;;28.60;100.00
54808;BME280;40708;50.364;7.550;2022-07-23T09:31:43;100647.53;;;28.41;100.00
54808;BME280;40708;50.364;7.550;2022-07-23T09:34:15;100639.25;;;28.43;100.00
54808;BME280;40708;50.364;7.550;2022-07-23T09:36:41;100643.66;;;28.06;100.00
54808;BME280;40708;50.364;7.550;2022-07-23T09:39:07;100650.91;;;27.66;100.00
54808;BME280;40708;50.364;7.550;2022-07-23T09:41:46;100652.97;;;27.62;100.00
54808;BME280;40708;50.364;7.550;2022-07-23T09:44:12;100655.06;;;27.45;100.00
54808;BME280;40708;50.364;7.550;2022-07-23T09:46:39;100654.97;;;27.73;100.00
54808;BME280;40708;50.364;7.550;2022-07-23T09:49:18;100656.66;;;27.61;100.00
54808;BME280;40708;50.364;7.550;2022-07-23T09:51:54;100653.66;;;27.38;100.00
54808;BME280;40708;50.364;7.550;2022-07-23T09:54:37;100647.47;;;27.76;100.00
54808;BME280;40708;50.364;7.550;2022-07-23T09:57:08;100652.19;;;27.60;100.00
54808;BME280;40708;50.364;7.550;2022-07-23T09:59:36;100644.75;;;28.16;100.00
54808;BME280;40708;50.364;7.550;2022-07-23T10:02:04;100652.44;;;28.36;100.00
54808;BME280;40708;50.364;7.550;2022-07-23T10:04:31;100642.75;;;29.08;100.00
54808;BME280;40708;50.364;7.550;2022-07-23T10:07:00;100647.53;;;29.66;100.00
54808;BME280;40708;50.364;7.550;2022-07-23T10:09:31;100637.53;;;30.01;100.00
54808;BME280;40708;50.364;7.550;2022-07-23T10:12:02;100643.41;;;29.24;100.00
54808;BME280;40708;50.364;7.550;2022-07-23T10:14:31;100643.44;;;28.86;100.00
54808;BME280;40708;50.364;7.550;2022-07-23T10:16:58;100647.41;;;28.30;100.00
54808;BME280;40708;50.364;7.550;2022-07-23T10:19:24;100642.25;;;28.77;100.00
54808;BME280;40708;50.364;7.550;2022-07-23T10:21:54;100642.75;;;29.08;100.00
54808;BME280;40708;50.364;7.550;2022-07-23T10:26:54;100636.66;;;28.79;100.00
54808;BME280;40708;50.364;7.550;2022-07-23T10:32:00;100626.16;;;28.60;100.00
54808;BME280;40708;50.364;7.550;2022-07-23T10:37:22;100626.91;;;28.50;100.00
54808;BME280;40708;50.364;7.550;2022-07-23T10:40:11;100618.66;;;28.64;100.00
54808;BME280;40708;50.364;7.550;2022-07-23T10:42:36;100617.72;;;28.25;99.11
54808;BME280;40708;50.364;7.550;2022-07-23T10:47:48;100612.28;;;28.25;100.00
54808;BME280;40708;50.364;7.550;2022-07-23T10:50:18;100609.91;;;28.71;95.33
54808;BME280;40708;50.364;7.550;2022-07-23T10:57:56;100620.44;;;27.59;100.00
54808;BME280;40708;50.364;7.550;2022-07-23T11:00:23;100607.13;;;27.82;98.32
54808;BME280;40708;50.364;7.550;2022-07-23T11:02:51;100610.00;;;27.93;94.92
54808;BME280;40708;50.364;7.550;2022-07-23T11:05:22;100610.50;;;28.12;98.77
54808;BME280;40708;50.364;7.550;2022-07-23T11:10:35;100607.56;;;28.15;100.00
54808;BME280;40708;50.364;7.550;2022-07-23T11:24:07;100605.53;;;28.94;100.00
54808;BME280;40708;50.364;7.550;2022-07-23T11:26:54;100602.56;;;28.84;100.00
54808;BME280;40708;50.364;7.550;2022-07-23T11:31:55;100592.41;;;28.99;100.00
54808;BME280;40708;50.364;7.550;2022-07-23T11:34:34;100588.25;;;28.81;100.00
54808;BME280;40708;50.364;7.550;2022-07-23T11:37:01;100597.56;;;28.53;100.00
54808;BME280;40708;50.364;7.550;2022-07-23T11:39:28;100595.34;;;28.33;100.00
54808;BME280;40708;50.364;7.550;2022-07-23T11:41:55;100592.94;;;28.54;100.00
54808;BME280;40708;50.364;7.550;2022-07-23T11:44:30;100584.88;;;28.90;100.00
54808;BME280;40708;50.364;7.550;2022-07-23T11:47:00;100588.78;;;28.99;100.00
54808;BME280;40708;50.364;7.550;2022-07-23T11:49:26;100593.72;;;28.93;100.00
54808;BME280;40708;50.364;7.550;2022-07-23T11:52:12;100590.19;;;29.53;100.00
54808;BME280;40708;50.364;7.550;2022-07-23T11:55:14;100588.84;;;29.82;100.00
54808;BME280;40708;50.364;7.550;2022-07-23T11:57:41;100591.63;;;29.70;100.00
54808;BME280;40708;50.364;7.550;2022-07-23T12:00:08;100594.38;;;29.46;99.02
54808;BME280;40708;50.364;7.550;2022-07-23T12:02:36;100597.13;;;29.33;99.62
54808;BME280;40708;50.364;7.550;2022-07-23T12:05:01;100587.91;;;28.98;100.00
54808;BME280;40708;50.364;7.550;2022-07-23T12:07:37;100602.25;;;28.76;100.00
54808;BME280;40708;50.364;7.550;2022-07-23T12:13:00;100590.84;;;29.44;100.00
54808;BME280;40708;50.364;7.550;2022-07-23T12:17:57;100604.94;;;29.50;100.00
54808;BME280;40708;50.364;7.550;2022-07-23T12:20:29;100593.91;;;29.03;100.00
54808;BME280;40708;50.364;7.550;2022-07-23T12:22:57;100596.25;;;28.71;100.00
54808;BME280;40708;50.364;7.550;2022-07-23T12:25:25;100583.38;;;28.86;100.00
54808;BME280;40708;50.364;7.550;2022-07-23T12:28:00;100585.84;;;29.02;100.00
54808;BME280;40708;50.364;7.550;2022-07-23T12:30:47;100591.38;;;29.13;100.00
54808;BME280;40708;50.364;7.550;2022-07-23T12:33:21;100586.31;;;29.19;100.00
54808;BME280;40708;50.364;7.550;2022-07-23T12:35:48;100589.13;;;29.43;100.00
54808;BME280;40708;50.364;7.550;2022-07-23T12:38:19;100584.56;;;29.55;100.00
54808;BME280;40708;50.364;7.550;2022-07-23T12:40:46;100584.06;;;29.49;100.00
54808;BME280;40708;50.364;7.550;2022-07-23T12:43:32;100587.22;;;29.80;100.00
54808;BME280;40708;50.364;7.550;2022-07-23T12:46:11;100578.94;;;30.27;97.25
54808;BME280;40708;50.364;7.550;2022-07-23T12:48:58;100582.22;;;30.43;95.97
54808;BME280;40708;50.364;7.550;2022-07-23T12:51:28;100573.91;;;30.10;94.92
54808;BME280;40708;50.364;7.550;2022-07-23T12:54:07;100582.06;;;29.99;94.99
54808;BME280;40708;50.364;7.550;2022-07-23T12:56:37;100586.75;;;29.62;97.11
54808;BME280;40708;50.364;7.550;2022-07-23T12:59:08;100579.03;;;29.80;96.62
54808;BME280;40708;50.364;7.550;2022-07-23T13:01:43;100587.22;;;29.56;97.46
54808;BME280;40708;50.364;7.550;2022-07-23T13:04:23;100584.66;;;29.42;96.53
54808;BME280;40708;50.364;7.550;2022-07-23T13:06:52;100588.47;;;29.39;98.06
54808;BME280;40708;50.364;7.550;2022-07-23T13:09:23;100586.22;;;29.21;97.44
54808;BME280;40708;50.364;7.550;2022-07-23T13:11:50;100590.28;;;29.03;97.26
54808;BME280;40708;50.364;7.550;2022-07-23T13:14:17;100593.53;;;29.20;98.08
54808;BME280;40708;50.364;7.550;2022-07-23T13:16:44;100592.78;;;29.31;94.62
54808;BME280;40708;50.364;7.550;2022-07-23T13:19:10;100597.25;;;29.19;96.38
54808;BME280;40708;50.364;7.550;2022-07-23T13:21:35;100586.31;;;29.19;95.45
54808;BME280;40708;50.364;7.550;2022-07-23T13:24:01;100589.22;;;28.92;98.49